El Paso, IL (61738)

8:22 AM CST on February 11, 2016 (GMT -0600)
North West corner of El Paso IL | | Change Station
CLOSE
Current Station
Personal Weather Station
Location: El Paso, IL
Elevation: 738 ft
Nearby Weather Stations

Elev 738 ft 40.74 °N, 89.02 °W | Updated 31 minutes ago

Clear
Clear
9.0 °F
Feels Like 0 °F
N
4.7
Wind Variable Wind from WNW

Today
High -- | Low -- °F
--% Chance of Precip.
Yesterday
High -- | Low -- °F
Precip. -- in
Pressure 30.39 in
Visibility 10.0 miles
Clouds Clear
Windchill 0 °F
Dew Point 7 °F
Humidity 91%
Rainfall 0.00 in
Snow Depth Not available.
6:55 AM 5:25 PM
Waxing Crescent, 12% visible
METAR KBMI 111356Z 35005KT 10SM CLR M11/M14 A3030 RMK AO2 T11111144 SLP291
Pressure 30.39 in
Visibility 10.0 miles
Clouds Clear
Windchill 0 °F
Dew Point 7 °F
Humidity 91%
Rainfall 0.00 in
Snow Depth Not available.
6:55 AM 5:25 PM
Waxing Crescent, 12% visible
METAR KBMI 111356Z 35005KT 10SM CLR M11/M14 A3030 RMK AO2 T11111144 SLP291

10-Day Weather Forecast

Almanac

Astronomy

Feb. 11, 2016 Rise Set
Actual Time
Civil Twilight
Nautical Twilight
Astronomical Twilight
Moon
Length of Visible Light
Length of Day
Tomorrow will be .
, % of the Moon is Illuminated

Today's Extremes

State Highs State Lows

Community

WunderPhotos

Upload Photos

1,892,048 photos uploaded!

WunderBlog® & News

Nearby

Air Quality

  Air Quality AQ Index Pollutant
Not available.

Snow Depth

Station Depth Elevation

Earthquake Activity

City Distance Mag. Time & Date
Minimum magnitude displayed is 2.5.

Coastal Water Temperatures

Place Temperature

Stations

Nearby Weather Stations

Station Location Temp. Windchill Dew Point Humidity Wind Precip. Elev Updated Type
                   

Watches & Warnings

There are currently no watches in effect.